createdAt,value
2022-07-30T00:01:36.531Z,101647.78
2022-07-30T00:04:04.153Z,101646.13
2022-07-30T00:06:32.614Z,101640.13
2022-07-30T00:08:59.824Z,101644.75
2022-07-30T00:11:28.317Z,101641.34
2022-07-30T00:13:56.023Z,101641.66
2022-07-30T00:16:23.351Z,101637.59
2022-07-30T00:18:50.667Z,101640.47
2022-07-30T00:21:34.696Z,101645.28
2022-07-30T00:24:04.882Z,101646.47
2022-07-30T00:26:31.988Z,101646.72
2022-07-30T00:28:59.567Z,101643.31
2022-07-30T00:31:26.939Z,101647.13
2022-07-30T00:33:54.726Z,101655.22
2022-07-30T00:36:23.959Z,101648.16
2022-07-30T00:38:52.048Z,101658.16
2022-07-30T00:41:20.301Z,101646.00
2022-07-30T00:43:47.836Z,101647.13
2022-07-30T00:46:15.388Z,101648.13
2022-07-30T00:48:43.466Z,101648.97
2022-07-30T00:51:10.756Z,101654.38
2022-07-30T00:53:38.868Z,101652.63
2022-07-30T00:56:06.315Z,101652.72
2022-07-30T00:58:33.731Z,101650.91
2022-07-30T01:01:01.850Z,101654.44
2022-07-30T01:03:29.088Z,101649.13
2022-07-30T01:05:56.283Z,101648.31
2022-07-30T01:08:23.407Z,101652.72
2022-07-30T01:10:52.432Z,101650.91
2022-07-30T01:13:19.528Z,101649.16
2022-07-30T01:15:47.881Z,101650.09
2022-07-30T01:18:17.361Z,101641.13
2022-07-30T01:21:05.242Z,101645.38
2022-07-30T01:23:43.271Z,101648.03
2022-07-30T01:26:19.650Z,101646.25
2022-07-30T01:28:51.984Z,101642.59
2022-07-30T01:31:21.816Z,101640.06
2022-07-30T01:33:51.405Z,101641.78
2022-07-30T01:36:22.970Z,101633.94
2022-07-30T01:38:52.306Z,101639.22
2022-07-30T01:41:20.522Z,101648.13
2022-07-30T01:43:47.940Z,101641.00
2022-07-30T01:46:18.647Z,101643.72
2022-07-30T01:48:49.876Z,101639.34
2022-07-30T01:51:19.667Z,101635.88
2022-07-30T01:53:53.477Z,101633.34
2022-07-30T01:56:26.112Z,101637.91
2022-07-30T01:58:58.164Z,101634.47
2022-07-30T02:01:31.000Z,101646.91
2022-07-30T02:04:02.996Z,101647.97
2022-07-30T02:06:47.224Z,101649.94
2022-07-30T02:09:27.857Z,101656.47
2022-07-30T02:12:15.590Z,101654.19
2022-07-30T02:14:53.647Z,101653.69
2022-07-30T02:17:34.763Z,101652.25
2022-07-30T02:20:13.372Z,101654.16
2022-07-30T02:22:47.348Z,101648.09
2022-07-30T02:25:20.650Z,101653.59
2022-07-30T02:27:55.978Z,101651.91
2022-07-30T02:30:30.159Z,101655.41
2022-07-30T02:33:08.427Z,101646.56
2022-07-30T02:35:38.000Z,101652.63
2022-07-30T02:38:09.121Z,101647.13
2022-07-30T02:40:41.829Z,101646.34
2022-07-30T02:43:10.265Z,101649.78
2022-07-30T02:45:38.161Z,101656.72
2022-07-30T02:48:10.317Z,101648.53
2022-07-30T02:50:40.134Z,101649.28
2022-07-30T02:53:12.308Z,101650.84
2022-07-30T02:55:43.544Z,101655.03
2022-07-30T02:58:19.439Z,101651.06
2022-07-30T03:00:49.522Z,101650.06
2022-07-30T03:03:18.100Z,101648.03
2022-07-30T03:05:50.192Z,101652.28
2022-07-30T03:08:20.016Z,101654.69
2022-07-30T03:10:50.193Z,101658.97
2022-07-30T03:13:19.837Z,101665.81
2022-07-30T03:15:51.112Z,101659.41
2022-07-30T03:18:23.354Z,101663.22
2022-07-30T03:20:54.672Z,101673.84
2022-07-30T03:23:23.916Z,101660.00
2022-07-30T03:26:01.532Z,101656.50
2022-07-30T03:28:37.591Z,101666.41
2022-07-30T03:31:06.246Z,101663.59
2022-07-30T03:33:38.797Z,101663.59
2022-07-30T03:36:08.564Z,101674.06
2022-07-30T03:38:38.887Z,101668.69
2022-07-30T03:41:08.075Z,101666.06
2022-07-30T03:43:36.129Z,101668.00
2022-07-30T03:46:09.573Z,101666.34
2022-07-30T03:48:42.581Z,101669.13
2022-07-30T03:51:10.738Z,101667.25
2022-07-30T03:53:42.131Z,101666.34
2022-07-30T03:56:27.976Z,101672.50
2022-07-30T03:59:06.317Z,101672.50
2022-07-30T04:01:37.559Z,101673.41
2022-07-30T04:04:25.418Z,101676.84
2022-07-30T04:06:52.526Z,101668.00
2022-07-30T04:09:20.488Z,101673.13
2022-07-30T04:11:48.812Z,101675.75
2022-07-30T04:14:18.038Z,101674.13
2022-07-30T04:16:57.660Z,101682.09
2022-07-30T04:19:43.611Z,101684.09
2022-07-30T04:22:16.832Z,101675.25
2022-07-30T04:24:45.181Z,101692.13
2022-07-30T04:27:12.742Z,101687.81
2022-07-30T04:29:41.589Z,101691.41
2022-07-30T04:32:11.948Z,101689.75
2022-07-30T04:34:58.192Z,101697.66
2022-07-30T04:37:43.606Z,101705.72
2022-07-30T04:40:11.009Z,101713.53
2022-07-30T04:42:38.095Z,101712.63
2022-07-30T04:45:11.565Z,101713.50
2022-07-30T04:47:49.776Z,101718.75
2022-07-30T04:50:39.188Z,101722.22
2022-07-30T04:53:10.483Z,101727.53
2022-07-30T04:55:46.839Z,101725.16
2022-07-30T04:58:18.782Z,101737.44
2022-07-30T05:00:49.133Z,101732.06
2022-07-30T05:03:21.983Z,101737.38
2022-07-30T05:05:57.289Z,101732.06
2022-07-30T05:08:27.136Z,101739.09
2022-07-30T05:10:55.437Z,101747.03
2022-07-30T05:13:27.536Z,101748.75
2022-07-30T05:16:02.882Z,101749.44
2022-07-30T05:18:29.959Z,101753.50
2022-07-30T05:20:57.355Z,101755.06
2022-07-30T05:23:51.651Z,101751.34
2022-07-30T05:26:31.251Z,101748.69
2022-07-30T05:29:02.132Z,101750.41
2022-07-30T05:31:43.807Z,101751.09
2022-07-30T05:34:12.496Z,101755.34
2022-07-30T05:36:45.165Z,101752.50
2022-07-30T05:39:16.464Z,101752.31
2022-07-30T05:42:04.974Z,101749.53
2022-07-30T05:44:36.194Z,101752.75
2022-07-30T05:47:03.622Z,101745.47
2022-07-30T05:49:31.412Z,101753.19
2022-07-30T05:52:09.922Z,101756.00
2022-07-30T05:54:37.745Z,101751.13
2022-07-30T05:57:19.911Z,101751.13
2022-07-30T05:59:47.660Z,101754.53
2022-07-30T06:02:25.218Z,101755.81
2022-07-30T06:05:15.619Z,101764.38
2022-07-30T06:07:43.880Z,101763.66
2022-07-30T06:10:11.551Z,101760.84
2022-07-30T06:12:39.033Z,101766.63
2022-07-30T06:15:07.181Z,101771.59
2022-07-30T06:17:57.100Z,101766.94
2022-07-30T06:20:49.529Z,101768.03
2022-07-30T06:23:35.440Z,101765.22
2022-07-30T06:26:22.755Z,101763.22
2022-07-30T06:28:50.620Z,101770.66
2022-07-30T06:31:24.066Z,101769.25
2022-07-30T06:33:52.083Z,101780.56
2022-07-30T06:36:20.193Z,101783.16
2022-07-30T06:38:54.550Z,101790.94
2022-07-30T06:41:33.481Z,101786.06
2022-07-30T06:44:00.753Z,101789.34
2022-07-30T06:46:48.744Z,101791.31
2022-07-30T06:49:20.207Z,101792.84
2022-07-30T06:51:47.813Z,101789.31
2022-07-30T06:54:14.964Z,101788.00
2022-07-30T06:57:04.378Z,101789.81
2022-07-30T06:59:32.727Z,101792.88
2022-07-30T07:02:29.267Z,101793.97
2022-07-30T07:05:09.237Z,101788.28
2022-07-30T07:07:42.488Z,101792.31
2022-07-30T07:10:14.307Z,101790.03
2022-07-30T07:12:57.508Z,101787.41
2022-07-30T07:15:37.087Z,101792.97
2022-07-30T07:18:07.557Z,101793.19
2022-07-30T07:20:37.473Z,101792.75
2022-07-30T07:23:09.007Z,101797.22
2022-07-30T07:25:39.920Z,101790.59
2022-07-30T07:28:11.844Z,101790.34
2022-07-30T07:30:45.236Z,101797.09
2022-07-30T07:33:15.467Z,101794.31
2022-07-30T07:35:49.368Z,101794.94
2022-07-30T07:38:25.833Z,101793.72
2022-07-30T07:40:54.902Z,101791.72
2022-07-30T07:43:22.303Z,101799.50
2022-07-30T07:45:50.315Z,101795.63
2022-07-30T07:48:19.191Z,101797.94
2022-07-30T07:50:46.461Z,101794.13
2022-07-30T07:53:33.140Z,101798.19
2022-07-30T07:56:00.613Z,101799.66
2022-07-30T07:58:28.107Z,101804.84
2022-07-30T08:00:59.674Z,101812.47
2022-07-30T08:03:48.121Z,101807.28
2022-07-30T08:06:42.098Z,101801.91
2022-07-30T08:09:40.854Z,101792.25
2022-07-30T08:12:32.627Z,101794.44
2022-07-30T08:15:21.843Z,101801.53
2022-07-30T08:18:10.579Z,101798.81
2022-07-30T08:21:00.619Z,101804.28
2022-07-30T08:23:32.035Z,101801.59
2022-07-30T08:25:59.477Z,101804.88
2022-07-30T08:28:36.019Z,101801.91
2022-07-30T08:31:04.882Z,101805.16
2022-07-30T08:33:32.069Z,101797.66
2022-07-30T08:36:04.387Z,101801.31
2022-07-30T08:38:40.128Z,101796.88
2022-07-30T08:41:08.653Z,101794.41
2022-07-30T08:43:37.572Z,101790.19
2022-07-30T08:46:10.473Z,101791.81
2022-07-30T08:48:51.398Z,101787.88
2022-07-30T08:51:20.029Z,101795.59
2022-07-30T08:54:07.726Z,101792.41
2022-07-30T08:56:36.791Z,101795.50
2022-07-30T08:59:05.534Z,101800.41
2022-07-30T09:01:33.597Z,101811.44
2022-07-30T09:04:00.814Z,101803.00
2022-07-30T09:06:29.177Z,101802.94
2022-07-30T09:08:56.412Z,101802.34
2022-07-30T09:11:23.577Z,101794.97
2022-07-30T09:13:51.632Z,101799.75
2022-07-30T09:16:25.304Z,101807.31
2022-07-30T09:21:25.174Z,101802.19
2022-07-30T09:24:13.334Z,101808.81
2022-07-30T09:27:10.037Z,101808.31
2022-07-30T09:30:01.806Z,101808.22
2022-07-30T09:32:56.314Z,101802.25
2022-07-30T09:35:44.128Z,101796.88
2022-07-30T09:38:13.135Z,101803.50
2022-07-30T09:41:23.036Z,101800.16
2022-07-30T09:44:08.840Z,101810.06
2022-07-30T09:46:48.017Z,101809.56
2022-07-30T09:49:30.485Z,101796.69
2022-07-30T09:51:58.475Z,101802.41
2022-07-30T09:54:52.726Z,101803.09
2022-07-30T10:00:24.414Z,101807.88
2022-07-30T10:03:33.857Z,101804.47
2022-07-30T10:06:33.801Z,101800.69
2022-07-30T10:09:14.132Z,101802.09
2022-07-30T10:11:44.705Z,101801.44
2022-07-30T10:14:12.807Z,101808.56
2022-07-30T10:16:41.607Z,101796.72
2022-07-30T10:19:18.238Z,101804.56
2022-07-30T10:22:10.342Z,101803.69
2022-07-30T10:24:57.445Z,101791.22
2022-07-30T10:27:47.036Z,101785.06
2022-07-30T10:30:27.950Z,101782.94
2022-07-30T10:32:59.765Z,101785.81
2022-07-30T10:35:34.879Z,101782.34
2022-07-30T10:38:14.017Z,101777.19
2022-07-30T10:40:55.748Z,101777.59
2022-07-30T10:44:03.025Z,101774.44
2022-07-30T10:46:42.924Z,101778.09
2022-07-30T10:49:19.044Z,101786.75
2022-07-30T10:51:50.150Z,101790.34
2022-07-30T10:54:39.940Z,101778.03
2022-07-30T10:57:31.741Z,101778.47
2022-07-30T11:00:00.538Z,101783.03
2022-07-30T11:02:31.240Z,101781.25
2022-07-30T11:05:18.651Z,101784.69
2022-07-30T11:08:36.027Z,101785.34
2022-07-30T11:11:59.449Z,101781.81
2022-07-30T11:14:13.061Z,101779.81
2022-07-30T11:17:05.407Z,101780.38
2022-07-30T11:19:53.222Z,101779.91
2022-07-30T11:22:29.791Z,101767.59
2022-07-30T11:24:57.722Z,101770.44
2022-07-30T11:27:41.812Z,101771.25
2022-07-30T11:30:18.785Z,101778.91
2022-07-30T11:32:48.779Z,101774.59
2022-07-30T11:35:23.635Z,101782.94
2022-07-30T11:38:18.934Z,101784.31
2022-07-30T11:40:49.294Z,101769.75
2022-07-30T11:43:35.948Z,101769.00
2022-07-30T11:46:28.516Z,101772.81
2022-07-30T11:48:58.620Z,101768.16
2022-07-30T11:51:26.824Z,101767.63
2022-07-30T11:54:10.700Z,101772.50
2022-07-30T11:56:37.898Z,101773.09
2022-07-30T11:59:08.233Z,101763.59
2022-07-30T12:01:50.713Z,101769.84
2022-07-30T12:04:18.623Z,101766.41
2022-07-30T12:06:48.688Z,101762.91
2022-07-30T12:09:30.306Z,101760.75
2022-07-30T12:11:58.497Z,101763.78
2022-07-30T12:14:38.792Z,101769.19
2022-07-30T12:17:06.023Z,101764.34
2022-07-30T12:19:48.977Z,101767.34
2022-07-30T12:22:16.364Z,101768.66
2022-07-30T12:24:43.484Z,101766.91
2022-07-30T12:27:10.776Z,101770.56
2022-07-30T12:29:38.338Z,101764.31
2022-07-30T12:32:06.050Z,101755.69
2022-07-30T12:34:33.752Z,101755.09
2022-07-30T12:37:10.557Z,101753.94
2022-07-30T12:39:37.776Z,101751.06
2022-07-30T12:42:05.141Z,101764.00
2022-07-30T12:44:46.224Z,101759.50
2022-07-30T12:47:29.743Z,101750.06
2022-07-30T12:50:00.851Z,101755.56
2022-07-30T12:52:35.179Z,101754.28
2022-07-30T12:55:09.815Z,101757.50
2022-07-30T12:58:02.886Z,101762.41
2022-07-30T13:00:54.839Z,101757.03
2022-07-30T13:03:24.970Z,101764.31
2022-07-30T13:05:55.473Z,101751.16
2022-07-30T13:08:56.189Z,101752.94
2022-07-30T13:11:27.979Z,101751.59
2022-07-30T13:13:55.432Z,101752.19
2022-07-30T13:16:24.597Z,101751.41
2022-07-30T13:18:51.712Z,101749.50
2022-07-30T13:21:18.757Z,101752.94
2022-07-30T13:23:49.339Z,101742.41
2022-07-30T13:26:16.473Z,101748.16
2022-07-30T13:28:46.598Z,101749.47
2022-07-30T13:31:14.684Z,101753.81
2022-07-30T13:33:42.944Z,101745.59
2022-07-30T13:36:10.504Z,101746.75
2022-07-30T13:38:37.681Z,101749.34
2022-07-30T13:41:05.708Z,101747.31
2022-07-30T13:43:33.808Z,101746.00
2022-07-30T13:46:03.782Z,101745.94
2022-07-30T13:48:35.777Z,101737.41
2022-07-30T13:51:05.261Z,101735.53
2022-07-30T13:53:33.166Z,101742.66
2022-07-30T13:56:00.450Z,101733.28
2022-07-30T13:58:36.238Z,101737.88
2022-07-30T14:01:03.717Z,101736.00
2022-07-30T14:03:30.856Z,101732.03
2022-07-30T14:06:10.758Z,101729.34
2022-07-30T14:08:42.739Z,101733.34
2022-07-30T14:11:09.941Z,101731.09
2022-07-30T14:13:37.879Z,101727.41
2022-07-30T14:16:13.878Z,101731.16
2022-07-30T14:18:49.972Z,101730.31
2022-07-30T14:21:17.047Z,101736.31
2022-07-30T14:23:44.172Z,101732.63
2022-07-30T14:26:12.303Z,101731.59
2022-07-30T14:28:39.390Z,101731.59
2022-07-30T14:31:06.536Z,101725.53
2022-07-30T14:33:33.675Z,101727.41
2022-07-30T14:36:00.729Z,101728.66
2022-07-30T14:38:28.939Z,101728.41
2022-07-30T14:40:56.303Z,101726.34
2022-07-30T14:43:24.895Z,101715.78
2022-07-30T14:45:53.365Z,101704.91
2022-07-30T14:48:20.599Z,101717.03
2022-07-30T14:51:12.129Z,101714.03
2022-07-30T14:53:35.218Z,101717.75
2022-07-30T14:56:02.368Z,101714.16
2022-07-30T14:58:33.731Z,101719.69
2022-07-30T15:01:15.776Z,101709.84
2022-07-30T15:03:47.620Z,101714.88
2022-07-30T15:06:15.535Z,101717.47
2022-07-30T15:08:43.293Z,101712.19
2022-07-30T15:11:10.459Z,101717.34
2022-07-30T15:13:49.714Z,101715.91
2022-07-30T15:16:19.035Z,101707.78
2022-07-30T15:18:46.678Z,101714.44
2022-07-30T15:21:14.309Z,101711.63
2022-07-30T15:23:41.879Z,101703.72
2022-07-30T15:26:09.087Z,101708.56
2022-07-30T15:28:36.215Z,101706.56
2022-07-30T15:31:04.908Z,101711.56
2022-07-30T15:33:36.106Z,101705.53
2022-07-30T15:36:04.755Z,101702.66
2022-07-30T15:38:33.928Z,101711.63
2022-07-30T15:41:02.137Z,101714.03
2022-07-30T15:43:29.396Z,101710.16
2022-07-30T15:45:56.743Z,101710.78
2022-07-30T15:48:27.359Z,101704.63
2022-07-30T15:51:03.305Z,101710.31
2022-07-30T15:53:33.676Z,101711.88
2022-07-30T15:56:01.955Z,101708.66
2022-07-30T15:58:29.159Z,101712.75
2022-07-30T16:00:56.566Z,101717.03
2022-07-30T16:03:24.002Z,101724.50
2022-07-30T16:05:52.935Z,101725.06
2022-07-30T16:08:21.448Z,101720.31
2022-07-30T16:10:49.757Z,101719.44
2022-07-30T16:13:16.918Z,101714.53
2022-07-30T16:15:44.841Z,101718.84
2022-07-30T16:18:12.066Z,101715.78
2022-07-30T16:20:39.198Z,101707.63
2022-07-30T16:23:12.021Z,101709.91
2022-07-30T16:25:41.139Z,101707.03
2022-07-30T16:28:08.330Z,101703.00
2022-07-30T16:30:35.421Z,101700.72
2022-07-30T16:33:16.611Z,101694.88
2022-07-30T16:35:48.710Z,101695.03
2022-07-30T16:38:16.933Z,101693.91
2022-07-30T16:40:44.393Z,101695.44
2022-07-30T16:43:11.752Z,101692.16
2022-07-30T16:45:38.938Z,101691.38
2022-07-30T16:48:06.539Z,101685.38
2022-07-30T16:50:33.767Z,101690.38
2022-07-30T16:53:00.888Z,101687.25
2022-07-30T16:55:28.039Z,101687.84
2022-07-30T16:57:55.107Z,101693.41
2022-07-30T17:00:22.360Z,101689.19
2022-07-30T17:02:51.646Z,101695.13
2022-07-30T17:05:18.798Z,101687.25
2022-07-30T17:07:46.102Z,101679.38
2022-07-30T17:10:13.295Z,101686.59
2022-07-30T17:12:41.944Z,101690.34
2022-07-30T17:15:18.053Z,101681.19
2022-07-30T17:17:45.980Z,101682.69
2022-07-30T17:20:14.521Z,101681.50
2022-07-30T17:22:43.156Z,101675.47
2022-07-30T17:25:10.548Z,101683.28
2022-07-30T17:27:38.004Z,101676.28
2022-07-30T17:30:06.197Z,101690.06
2022-07-30T17:32:33.979Z,101695.28
2022-07-30T17:35:01.262Z,101693.22
2022-07-30T17:37:28.454Z,101699.59
2022-07-30T17:40:06.051Z,101693.47
2022-07-30T17:42:45.389Z,101693.00
2022-07-30T17:45:14.089Z,101691.69
2022-07-30T17:47:41.238Z,101692.31
2022-07-30T17:50:10.396Z,101690.47
2022-07-30T17:52:39.783Z,101694.06
2022-07-30T17:55:11.195Z,101688.69
2022-07-30T17:57:38.622Z,101686.00
2022-07-30T18:00:09.503Z,101687.50
2022-07-30T18:02:36.741Z,101683.09
2022-07-30T18:05:04.245Z,101687.50
2022-07-30T18:07:31.306Z,101684.41
2022-07-30T18:09:58.497Z,101684.16
2022-07-30T18:12:25.565Z,101689.09
2022-07-30T18:14:53.634Z,101690.53
2022-07-30T18:17:20.691Z,101686.47
2022-07-30T18:19:47.773Z,101691.88
2022-07-30T18:22:16.195Z,101695.69
2022-07-30T18:24:55.326Z,101698.75
2022-07-30T18:27:22.394Z,101704.38
2022-07-30T18:29:51.438Z,101705.72
2022-07-30T18:32:18.729Z,101699.97
2022-07-30T18:34:45.773Z,101704.97
2022-07-30T18:37:12.825Z,101714.50
2022-07-30T18:39:39.850Z,101706.00
2022-07-30T18:42:07.520Z,101701.94
2022-07-30T18:44:34.823Z,101707.69
2022-07-30T18:47:02.258Z,101700.91
2022-07-30T18:49:37.736Z,101698.66
2022-07-30T18:52:07.649Z,101701.72
2022-07-30T18:54:36.304Z,101698.53
2022-07-30T18:57:05.304Z,101703.16
2022-07-30T18:59:32.715Z,101704.88
2022-07-30T19:02:02.056Z,101699.63
2022-07-30T19:04:29.289Z,101701.66
2022-07-30T19:06:57.472Z,101694.81
2022-07-30T19:09:24.708Z,101702.47
2022-07-30T19:11:51.767Z,101700.34
2022-07-30T19:14:19.286Z,101699.84
2022-07-30T19:16:46.409Z,101694.91
2022-07-30T19:19:14.807Z,101691.88
2022-07-30T19:21:42.731Z,101693.31
2022-07-30T19:24:10.292Z,101690.97
2022-07-30T19:26:39.642Z,101693.25
2022-07-30T19:29:08.016Z,101692.59
2022-07-30T19:31:35.773Z,101686.81
2022-07-30T19:34:03.267Z,101689.06
2022-07-30T19:36:30.408Z,101690.28
2022-07-30T19:39:07.723Z,101695.75
2022-07-30T19:41:41.073Z,101691.59
2022-07-30T19:44:10.464Z,101693.31
2022-07-30T19:46:38.116Z,101695.31
2022-07-30T19:49:06.789Z,101704.41
2022-07-30T19:52:11.343Z,101715.25
2022-07-30T19:54:21.756Z,101709.09
2022-07-30T19:56:48.945Z,101705.78
2022-07-30T19:59:18.217Z,101705.03
2022-07-30T20:01:45.348Z,101713.41
2022-07-30T20:04:19.929Z,101719.03
2022-07-30T20:06:49.905Z,101722.00
2022-07-30T20:09:17.343Z,101718.69
2022-07-30T20:11:46.504Z,101716.31
2022-07-30T20:14:16.301Z,101722.75
2022-07-30T20:16:43.981Z,101715.00
2022-07-30T20:19:15.727Z,101715.97
2022-07-30T20:21:57.760Z,101713.50
2022-07-30T20:24:26.455Z,101707.59
2022-07-30T20:26:53.643Z,101710.59
2022-07-30T20:29:20.986Z,101703.94
2022-07-30T20:31:49.742Z,101704.13
2022-07-30T20:34:20.675Z,101706.16
2022-07-30T20:36:51.346Z,101707.34
2022-07-30T20:39:21.885Z,101710.31
2022-07-30T20:41:50.036Z,101712.28
2022-07-30T20:44:23.355Z,101710.75
2022-07-30T20:46:52.608Z,101709.22
2022-07-30T20:49:24.109Z,101702.25
2022-07-30T20:52:09.710Z,101704.09
2022-07-30T20:54:37.947Z,101705.13
2022-07-30T20:57:15.620Z,101706.22
2022-07-30T21:02:30.203Z,101711.13
2022-07-30T21:04:59.819Z,101699.69
2022-07-30T21:07:27.195Z,101703.34
2022-07-30T21:10:04.502Z,101699.88
2022-07-30T21:12:36.337Z,101699.03
2022-07-30T21:15:23.767Z,101694.75
2022-07-30T21:17:52.430Z,101693.97
2022-07-30T21:20:27.720Z,101687.84
2022-07-30T21:23:02.254Z,101687.84
2022-07-30T21:25:32.393Z,101687.31
2022-07-30T21:28:02.807Z,101691.91
2022-07-30T21:30:32.711Z,101685.00
2022-07-30T21:32:59.945Z,101689.06
2022-07-30T21:35:31.720Z,101687.66
2022-07-30T21:37:59.485Z,101684.41
2022-07-30T21:40:27.675Z,101684.72
2022-07-30T21:42:56.322Z,101683.06
2022-07-30T21:45:23.907Z,101670.84
2022-07-30T21:48:07.478Z,101674.47
2022-07-30T21:50:37.925Z,101671.13
2022-07-30T21:53:05.350Z,101671.31
2022-07-30T21:55:33.260Z,101680.22
2022-07-30T21:58:00.614Z,101676.69
2022-07-30T22:01:00.818Z,101679.38
2022-07-30T22:04:04.806Z,101677.94
2022-07-30T22:06:29.083Z,101679.09
2022-07-30T22:08:57.381Z,101675.09
2022-07-30T22:11:24.496Z,101681.69
2022-07-30T22:14:10.903Z,101679.47
2022-07-30T22:16:38.363Z,101671.06
2022-07-30T22:19:14.844Z,101679.38
2022-07-30T22:21:46.560Z,101677.00
2022-07-30T22:24:28.859Z,101681.59
2022-07-30T22:27:01.658Z,101679.97
2022-07-30T22:29:38.658Z,101681.03
2022-07-30T22:32:06.799Z,101671.38
2022-07-30T22:34:35.116Z,101683.81
2022-07-30T22:37:02.240Z,101675.97
2022-07-30T22:39:50.337Z,101684.19
2022-07-30T22:42:16.343Z,101677.31
2022-07-30T22:44:46.061Z,101675.66
2022-07-30T22:47:21.729Z,101671.34
2022-07-30T22:50:02.987Z,101671.53
2022-07-30T22:52:37.725Z,101670.78
2022-07-30T22:55:09.142Z,101666.44
2022-07-30T22:57:40.074Z,101671.81
2022-07-30T23:00:12.167Z,101670.09
2022-07-30T23:02:41.591Z,101668.47
2022-07-30T23:05:10.286Z,101665.97
2022-07-30T23:07:40.725Z,101667.78
2022-07-30T23:10:17.930Z,101663.66
2022-07-30T23:12:26.632Z,101698.47
2022-07-30T23:12:53.683Z,101669.19
2022-07-30T23:15:22.387Z,101665.00
2022-07-30T23:17:49.412Z,101659.72
2022-07-30T23:20:20.416Z,101657.22
2022-07-30T23:22:48.515Z,101663.41
2022-07-30T23:25:15.811Z,101652.81
2022-07-30T23:27:43.125Z,101650.13
2022-07-30T23:30:11.557Z,101651.19
2022-07-30T23:32:40.024Z,101649.53
2022-07-30T23:35:09.322Z,101650.47
2022-07-30T23:37:48.488Z,101643.50
2022-07-30T23:40:19.148Z,101638.25
2022-07-30T23:42:49.995Z,101650.00
2022-07-30T23:45:18.223Z,101650.00
2022-07-30T23:48:00.880Z,101643.00
2022-07-30T23:50:34.294Z,101636.97
2022-07-30T23:53:02.700Z,101634.41
2022-07-30T23:55:32.027Z,101633.63
2022-07-30T23:58:00.234Z,101630.09
